Time;durP1;ratioP1;P1;durP2;ratioP2;P2;SDS_P1;SDS_P2;PMS_P1;PMS_P2;Temp;Humidity;BMP_temperature;BMP_pressure;BME280_temperature;BME280_humidity;BME280_pressure;Samples;Min_cycle;Max_cycle;Signal;HPM_P1;HPM_P2
2023/09/24 00:00:13;;;;;;;;;;;19.80;92.80;;;;;;5090956;28;19939;-68
2023/09/24 00:02:39;;;;;;;;;;;19.90;92.70;;;;;;5084439;28;19935;-71
2023/09/24 00:05:12;;;;;;;;;;;20.20;92.80;;;;;;5090986;28;19912;-70
2023/09/24 00:07:39;;;;;;;;;;;20.30;91.60;;;;;;5082758;28;20011;-69
2023/09/24 00:10:06;;;;;;;;;;;20.50;92.40;;;;;;5091486;28;20276;-71
2023/09/24 00:12:33;;;;;;;;;;;20.60;91.90;;;;;;5095782;28;20369;-71
2023/09/24 00:14:59;;;;;;;;;;;20.70;90.70;;;;;;5074739;28;20013;-68
2023/09/24 00:17:26;;;;;;;;;;;20.70;90.90;;;;;;5087705;28;19909;-71
2023/09/24 00:19:53;;;;;;;;;;;20.70;90.90;;;;;;5086067;28;20396;-72
2023/09/24 00:22:20;;;;;;;;;;;20.60;89.70;;;;;;5084460;28;19928;-71
2023/09/24 00:24:47;;;;;;;;;;;20.40;90.20;;;;;;5071494;28;20269;-68
2023/09/24 00:27:14;;;;;;;;;;;20.50;90.60;;;;;;5086663;28;20384;-70
2023/09/24 00:29:41;;;;;;;;;;;20.60;90.20;;;;;;5089055;28;19919;-70
2023/09/24 00:32:07;;;;;;;;;;;20.60;89.10;;;;;;5085645;28;19967;-68
2023/09/24 00:34:34;;;;;;;;;;;20.70;90.00;;;;;;5086050;28;19916;-68
2023/09/24 00:37:01;;;;;;;;;;;20.60;89.60;;;;;;5098428;28;19919;-65
2023/09/24 00:39:30;;;;;;;;;;;20.50;88.20;;;;;;5071297;28;19935;-68
2023/09/24 00:41:57;;;;;;;;;;;20.50;87.10;;;;;;5086894;28;19916;-72
2023/09/24 00:44:24;;;;;;;;;;;20.50;86.20;;;;;;5091710;28;20246;-67
2023/09/24 00:46:51;;;;;;;;;;;20.30;88.00;;;;;;5091520;28;20332;-70
2023/09/24 00:49:17;;;;;;;;;;;20.40;88.40;;;;;;5074664;28;20391;-73
2023/09/24 00:51:44;;;;;;;;;;;20.10;87.20;;;;;;5091715;28;20284;-70
2023/09/24 00:54:12;;;;;;;;;;;20.00;86.90;;;;;;5094901;28;19961;-66
2023/09/24 00:56:39;;;;;;;;;;;19.80;88.30;;;;;;5095335;28;20007;-67
2023/09/24 00:59:08;;;;;;;;;;;19.60;89.30;;;;;;5076513;28;19912;-68
2023/09/24 01:01:35;;;;;;;;;;;19.60;89.70;;;;;;5085514;28;20368;-66
2023/09/24 01:04:09;;;;;;;;;;;19.60;90.00;;;;;;5094930;28;19912;-66
2023/09/24 01:06:36;;;;;;;;;;;19.60;88.40;;;;;;5095038;28;19938;-72
2023/09/24 01:09:08;;;;;;;;;;;19.70;89.20;;;;;;5077098;28;19908;-68
2023/09/24 01:11:34;;;;;;;;;;;19.90;89.00;;;;;;5084282;28;19973;-68
2023/09/24 01:14:03;;;;;;;;;;;20.10;89.10;;;;;;5094917;28;19908;-67
2023/09/24 01:16:30;;;;;;;;;;;20.40;88.10;;;;;;5094746;28;20365;-71
2023/09/24 01:18:57;;;;;;;;;;;20.20;86.10;;;;;;5076309;28;19912;-69
2023/09/24 01:21:27;;;;;;;;;;;20.20;88.20;;;;;;5081714;28;19937;-70
2023/09/24 01:23:55;;;;;;;;;;;20.70;87.80;;;;;;5094215;28;19912;-70
2023/09/24 01:26:24;;;;;;;;;;;20.90;85.60;;;;;;5094162;28;20356;-72
2023/09/24 01:28:51;;;;;;;;;;;20.60;86.20;;;;;;5077981;28;19908;-76
2023/09/24 01:31:21;;;;;;;;;;;20.80;85.90;;;;;;5081680;28;19943;-68
2023/09/24 01:33:48;;;;;;;;;;;20.70;85.20;;;;;;5094149;28;19908;-68
2023/09/24 01:36:17;;;;;;;;;;;20.90;85.70;;;;;;5078333;28;19963;-70
2023/09/24 01:38:45;;;;;;;;;;;21.00;85.10;;;;;;5079332;28;19908;-67
2023/09/24 01:41:12;;;;;;;;;;;21.20;86.10;;;;;;5091447;28;19916;-70
2023/09/24 01:43:45;;;;;;;;;;;21.50;84.30;;;;;;5089695;28;19927;-67
2023/09/24 01:46:15;;;;;;;;;;;21.70;83.80;;;;;;5079800;28;19916;-66
2023/09/24 01:48:43;;;;;;;;;;;22.10;84.60;;;;;;5085685;28;19920;-72
2023/09/24 01:51:10;;;;;;;;;;;22.30;81.10;;;;;;5093904;28;20293;-68
2023/09/24 01:53:38;;;;;;;;;;;22.20;79.80;;;;;;5076367;28;19912;-71
2023/09/24 01:56:07;;;;;;;;;;;22.40;81.50;;;;;;5079640;28;20090;-73
2023/09/24 01:58:35;;;;;;;;;;;22.60;81.30;;;;;;5092691;28;19912;-67
2023/09/24 02:01:05;;;;;;;;;;;23.30;79.50;;;;;;5076834;28;20011;-66
2023/09/24 02:03:31;;;;;;;;;;;23.50;81.20;;;;;;5074011;28;19921;-66
2023/09/24 02:05:58;;;;;;;;;;;24.00;81.70;;;;;;5073723;28;19908;-66
2023/09/24 02:08:25;;;;;;;;;;;24.20;76.70;;;;;;5085962;28;19908;-66
2023/09/24 02:10:51;;;;;;;;;;;23.80;76.40;;;;;;5086447;28;19913;-68
2023/09/24 02:13:20;;;;;;;;;;;23.50;79.00;;;;;;5074364;28;19966;-70
2023/09/24 02:15:48;;;;;;;;;;;23.90;79.20;;;;;;5073517;28;19970;-67
2023/09/24 02:18:15;;;;;;;;;;;24.10;75.90;;;;;;5082373;28;19956;-75
2023/09/24 02:20:46;;;;;;;;;;;24.10;76.60;;;;;;5093228;28;20007;-71
2023/09/24 02:23:13;;;;;;;;;;;24.10;75.60;;;;;;5076215;28;19972;-71
2023/09/24 02:25:39;;;;;;;;;;;23.80;77.30;;;;;;5076229;28;20276;-70
2023/09/24 02:28:06;;;;;;;;;;;24.30;75.50;;;;;;5093465;28;19904;-73
2023/09/24 02:30:34;;;;;;;;;;;24.30;75.90;;;;;;5093723;28;19909;-70
2023/09/24 02:33:02;;;;;;;;;;;24.00;75.60;;;;;;5077504;28;20330;-74
2023/09/24 02:35:29;;;;;;;;;;;23.80;77.40;;;;;;5073469;28;19915;-68
2023/09/24 02:37:56;;;;;;;;;;;23.80;74.30;;;;;;5073622;28;20731;-68
2023/09/24 02:40:23;;;;;;;;;;;22.80;77.60;;;;;;5082054;28;19919;-71
2023/09/24 02:43:00;;;;;;;;;;;22.60;76.30;;;;;;5092396;28;20380;-69
2023/09/24 02:45:29;;;;;;;;;;;23.70;76.20;;;;;;5093442;28;20391;-74
2023/09/24 02:47:56;;;;;;;;;;;25.30;73.20;;;;;;5092164;28;20058;-74
2023/09/24 02:50:24;;;;;;;;;;;26.20;71.10;;;;;;5093761;28;20288;-69
2023/09/24 02:52:54;;;;;;;;;;;27.20;69.60;;;;;;5080871;28;19912;-70
2023/09/24 02:55:22;;;;;;;;;;;28.40;68.50;;;;;;5073049;28;19908;-74
2023/09/24 02:57:51;;;;;;;;;;;29.70;64.60;;;;;;5073331;28;19908;-71
2023/09/24 03:00:21;;;;;;;;;;;31.00;62.00;;;;;;5071949;28;19908;-72
2023/09/24 03:02:48;;;;;;;;;;;30.90;61.50;;;;;;5079781;28;19939;-67
2023/09/24 03:05:20;;;;;;;;;;;31.70;59.80;;;;;;5072559;28;19916;-72
2023/09/24 03:07:50;;;;;;;;;;;32.60;58.90;;;;;;5072941;28;19908;-72
2023/09/24 03:10:16;;;;;;;;;;;32.60;60.20;;;;;;5072452;28;19915;-69
2023/09/24 03:12:43;;;;;;;;;;;33.70;58.20;;;;;;5083436;28;19912;-69
2023/09/24 03:15:13;;;;;;;;;;;34.30;55.80;;;;;;5090770;28;20056;-71
2023/09/24 03:17:40;;;;;;;;;;;34.80;55.60;;;;;;5098234;28;19916;-70
2023/09/24 03:20:23;;;;;;;;;;;35.30;54.50;;;;;;5103684;28;19955;-67
2023/09/24 03:22:51;;;;;;;;;;;35.40;54.00;;;;;;5099590;28;20288;-69
2023/09/24 03:25:18;;;;;;;;;;;35.10;53.00;;;;;;5103197;28;19912;-67
2023/09/24 03:27:46;;;;;;;;;;;35.50;53.50;;;;;;5102213;28;19919;-66
2023/09/24 03:30:17;;;;;;;;;;;34.00;52.70;;;;;;5101351;28;20002;-70
2023/09/24 03:32:47;;;;;;;;;;;34.40;52.10;;;;;;5101081;28;19962;-68
2023/09/24 03:35:14;;;;;;;;;;;34.70;53.00;;;;;;5093181;28;19956;-67
2023/09/24 03:37:43;;;;;;;;;;;34.50;52.20;;;;;;5089041;28;20388;-65
2023/09/24 03:40:14;;;;;;;;;;;34.80;53.20;;;;;;5091183;28;19908;-69
2023/09/24 03:42:41;;;;;;;;;;;33.60;52.50;;;;;;5080778;28;19921;-69
2023/09/24 03:45:09;;;;;;;;;;;33.60;53.80;;;;;;5076718;28;19951;-68
2023/09/24 03:47:37;;;;;;;;;;;33.50;52.40;;;;;;5098209;28;20670;-70
2023/09/24 03:50:04;;;;;;;;;;;33.50;53.60;;;;;;5092311;28;20376;-73
2023/09/24 03:52:31;;;;;;;;;;;34.20;51.90;;;;;;5092112;28;20399;-69
2023/09/24 03:54:59;;;;;;;;;;;34.30;51.90;;;;;;5105825;28;19908;-73
2023/09/24 03:57:29;;;;;;;;;;;34.70;51.60;;;;;;5092211;28;19916;-69
2023/09/24 03:59:57;;;;;;;;;;;35.80;52.50;;;;;;5092648;28;19912;-72
2023/09/24 04:02:24;;;;;;;;;;;36.30;52.00;;;;;;5080898;28;19927;-72
2023/09/24 04:04:51;;;;;;;;;;;36.80;52.10;;;;;;5072147;28;19920;-67
2023/09/24 04:07:18;;;;;;;;;;;36.40;50.70;;;;;;5078840;28;19931;-72
2023/09/24 04:09:44;;;;;;;;;;;35.90;50.60;;;;;;5089635;28;20419;-67
2023/09/24 04:12:13;;;;;;;;;;;36.80;51.00;;;;;;5096295;28;19912;-67
2023/09/24 04:14:40;;;;;;;;;;;35.90;49.50;;;;;;5081012;28;19916;-68
2023/09/24 04:17:06;;;;;;;;;;;34.70;51.00;;;;;;5088860;28;20364;-70
2023/09/24 04:19:34;;;;;;;;;;;35.70;50.00;;;;;;5091303;28;19908;-68
2023/09/24 04:22:00;;;;;;;;;;;33.40;51.00;;;;;;5091336;28;19959;-70
2023/09/24 04:24:27;;;;;;;;;;;34.70;50.60;;;;;;5095716;28;19951;-67
2023/09/24 04:26:54;;;;;;;;;;;34.00;51.80;;;;;;5095676;28;19953;-66
2023/09/24 04:29:21;;;;;;;;;;;35.50;50.80;;;;;;5085284;28;19916;-67
2023/09/24 04:31:47;;;;;;;;;;;35.80;51.60;;;;;;5102685;28;19908;-66
2023/09/24 04:34:14;;;;;;;;;;;36.60;50.60;;;;;;5094237;28;19947;-66
2023/09/24 04:36:41;;;;;;;;;;;35.30;49.20;;;;;;5095409;28;19908;-67
2023/09/24 04:39:12;;;;;;;;;;;33.90;51.10;;;;;;5110728;28;19911;-66
2023/09/24 04:41:42;;;;;;;;;;;32.40;51.20;;;;;;5080577;28;19919;-66
2023/09/24 04:44:09;;;;;;;;;;;33.80;51.60;;;;;;5091931;28;19909;-70
2023/09/24 04:46:35;;;;;;;;;;;33.00;51.20;;;;;;5078335;28;20373;-69
2023/09/24 04:49:05;;;;;;;;;;;33.80;51.60;;;;;;5075813;28;19942;-67
2023/09/24 04:51:34;;;;;;;;;;;34.50;51.90;;;;;;5093332;28;19935;-72
2023/09/24 04:54:01;;;;;;;;;;;36.00;50.40;;;;;;5094293;28;19908;-70
2023/09/24 04:56:31;;;;;;;;;;;35.90;50.20;;;;;;5095634;28;19908;-68
2023/09/24 04:58:57;;;;;;;;;;;36.60;49.60;;;;;;5095853;28;19919;-72
2023/09/24 05:01:24;;;;;;;;;;;36.30;50.20;;;;;;5094415;28;19910;-72
2023/09/24 05:03:51;;;;;;;;;;;36.00;49.90;;;;;;5095404;28;19916;-71
2023/09/24 05:06:18;;;;;;;;;;;36.30;49.60;;;;;;5095512;28;19912;-67
2023/09/24 05:08:45;;;;;;;;;;;36.70;49.00;;;;;;5094900;28;20474;-71
2023/09/24 05:11:12;;;;;;;;;;;35.70;49.60;;;;;;5093829;28;19954;-71
2023/09/24 05:13:40;;;;;;;;;;;35.10;50.00;;;;;;5093244;28;19908;-72
2023/09/24 05:16:08;;;;;;;;;;;34.90;50.20;;;;;;5093611;28;19908;-71
2023/09/24 05:18:35;;;;;;;;;;;35.70;50.10;;;;;;5093486;28;19908;-70
2023/09/24 05:21:03;;;;;;;;;;;34.60;50.90;;;;;;5093309;28;19915;-69
2023/09/24 05:23:30;;;;;;;;;;;35.80;50.30;;;;;;5093403;28;20360;-70
2023/09/24 05:25:57;;;;;;;;;;;36.70;50.00;;;;;;5095306;28;20266;-68
2023/09/24 05:28:24;;;;;;;;;;;36.50;48.90;;;;;;5095278;28;19908;-69
2023/09/24 05:30:54;;;;;;;;;;;35.40;50.60;;;;;;5094819;28;20313;-71
2023/09/24 05:33:21;;;;;;;;;;;34.10;50.80;;;;;;5094863;28;19908;-71
2023/09/24 05:35:51;;;;;;;;;;;33.10;51.70;;;;;;5095209;28;19954;-69
2023/09/24 05:38:18;;;;;;;;;;;32.60;53.80;;;;;;5095323;28;19915;-68
2023/09/24 05:40:45;;;;;;;;;;;33.50;51.50;;;;;;5095124;28;19908;-73
2023/09/24 05:43:12;;;;;;;;;;;33.00;52.20;;;;;;5094914;28;19923;-71
2023/09/24 05:45:45;;;;;;;;;;;32.00;53.60;;;;;;5094888;28;20003;-69
2023/09/24 05:48:14;;;;;;;;;;;33.00;52.50;;;;;;5089205;28;19916;-68
2023/09/24 05:50:41;;;;;;;;;;;34.00;51.90;;;;;;5093905;28;19920;-74
2023/09/24 05:53:09;;;;;;;;;;;33.70;51.50;;;;;;5091596;28;19908;-71
2023/09/24 05:55:36;;;;;;;;;;;33.40;51.10;;;;;;5094547;28;19944;-74
2023/09/24 05:58:04;;;;;;;;;;;34.00;51.90;;;;;;5094992;28;19935;-69
2023/09/24 06:00:31;;;;;;;;;;;33.20;52.00;;;;;;5094492;28;19908;-69
2023/09/24 06:02:58;;;;;;;;;;;33.60;53.00;;;;;;5094479;28;19961;-73
2023/09/24 06:05:25;;;;;;;;;;;34.20;51.90;;;;;;5094486;28;19908;-75
2023/09/24 06:07:51;;;;;;;;;;;34.00;51.90;;;;;;5094681;28;19922;-74
2023/09/24 06:10:20;;;;;;;;;;;33.70;52.40;;;;;;5094180;28;19991;-71
2023/09/24 06:12:47;;;;;;;;;;;33.20;52.30;;;;;;5094284;28;19912;-70
2023/09/24 06:15:14;;;;;;;;;;;34.00;52.80;;;;;;5094626;28;19908;-74
2023/09/24 06:17:40;;;;;;;;;;;34.30;51.80;;;;;;5094454;28;20265;-72
2023/09/24 06:20:08;;;;;;;;;;;33.80;51.20;;;;;;5094276;28;19916;-73
2023/09/24 06:22:35;;;;;;;;;;;33.90;51.60;;;;;;5094155;28;20377;-75
2023/09/24 06:25:02;;;;;;;;;;;33.90;51.40;;;;;;5094166;28;19909;-68
2023/09/24 06:27:29;;;;;;;;;;;33.70;51.50;;;;;;5094400;28;19915;-73
2023/09/24 06:29:56;;;;;;;;;;;32.90;52.30;;;;;;5094042;28;19954;-70
2023/09/24 06:32:23;;;;;;;;;;;33.00;53.10;;;;;;5090045;28;20108;-71
2023/09/24 06:34:49;;;;;;;;;;;33.20;53.20;;;;;;5087500;28;19912;-71
2023/09/24 06:37:16;;;;;;;;;;;32.70;52.30;;;;;;5091913;28;19916;-68
2023/09/24 06:39:44;;;;;;;;;;;30.90;53.70;;;;;;5092586;28;19912;-66
2023/09/24 06:42:10;;;;;;;;;;;30.40;54.50;;;;;;5090808;28;20030;-75
2023/09/24 06:44:37;;;;;;;;;;;30.30;54.20;;;;;;5092767;28;19908;-72
2023/09/24 06:47:04;;;;;;;;;;;29.80;55.40;;;;;;5092863;28;19995;-70
2023/09/24 06:49:30;;;;;;;;;;;27.90;56.80;;;;;;5093301;28;19923;-70
2023/09/24 06:51:57;;;;;;;;;;;26.90;59.00;;;;;;5093513;28;19916;-74
2023/09/24 06:54:24;;;;;;;;;;;26.00;60.10;;;;;;5093250;28;20425;-68
2023/09/24 06:56:50;;;;;;;;;;;25.40;61.50;;;;;;5093102;28;19915;-70
2023/09/24 06:59:17;;;;;;;;;;;24.00;63.80;;;;;;5093149;28;19908;-74
2023/09/24 07:01:44;;;;;;;;;;;23.20;65.90;;;;;;5093398;28;19912;-72
2023/09/24 07:04:10;;;;;;;;;;;22.30;67.60;;;;;;5093217;28;19914;-73
2023/09/24 07:06:39;;;;;;;;;;;21.70;69.50;;;;;;5092764;28;19908;-69
2023/09/24 07:09:05;;;;;;;;;;;21.40;70.40;;;;;;5092903;28;19940;-72
2023/09/24 07:11:37;;;;;;;;;;;21.20;71.20;;;;;;5092810;28;19939;-71
2023/09/24 07:14:05;;;;;;;;;;;20.90;71.40;;;;;;5092970;28;20455;-70
2023/09/24 07:16:32;;;;;;;;;;;20.60;72.40;;;;;;5093007;28;19908;-67
2023/09/24 07:18:58;;;;;;;;;;;20.30;73.40;;;;;;5092476;28;19959;-71
2023/09/24 07:21:26;;;;;;;;;;;20.10;74.00;;;;;;5092517;28;19909;-67
2023/09/24 07:23:56;;;;;;;;;;;19.90;75.00;;;;;;5092682;28;20011;-70
2023/09/24 07:26:23;;;;;;;;;;;19.80;76.00;;;;;;5092586;28;19915;-73
2023/09/24 07:28:50;;;;;;;;;;;19.60;76.00;;;;;;5092614;28;19912;-68
2023/09/24 07:31:21;;;;;;;;;;;19.60;76.60;;;;;;5092658;28;19908;-75
2023/09/24 07:33:49;;;;;;;;;;;19.50;77.00;;;;;;5092415;28;19908;-71
2023/09/24 07:36:16;;;;;;;;;;;19.40;77.70;;;;;;5092335;28;19912;-75
2023/09/24 07:38:43;;;;;;;;;;;19.40;78.50;;;;;;5092618;28;19915;-74
2023/09/24 07:41:10;;;;;;;;;;;19.20;78.50;;;;;;5092190;28;19909;-72
2023/09/24 07:43:37;;;;;;;;;;;19.20;78.30;;;;;;5092420;28;19942;-72
2023/09/24 07:46:04;;;;;;;;;;;19.00;78.50;;;;;;5092155;28;19912;-74
2023/09/24 07:48:31;;;;;;;;;;;18.90;79.00;;;;;;5091389;28;19924;-68
2023/09/24 07:50:58;;;;;;;;;;;18.80;79.30;;;;;;5091731;28;19977;-68
2023/09/24 07:53:25;;;;;;;;;;;18.70;80.20;;;;;;5092449;28;19916;-71
2023/09/24 07:55:55;;;;;;;;;;;18.70;80.80;;;;;;5091870;28;19962;-71
2023/09/24 07:58:22;;;;;;;;;;;18.60;80.70;;;;;;5096078;28;19996;-69
2023/09/24 08:00:48;;;;;;;;;;;18.40;81.50;;;;;;5096422;28;19912;-77
2023/09/24 08:03:16;;;;;;;;;;;18.50;81.70;;;;;;5096493;28;19969;-72
2023/09/24 08:05:43;;;;;;;;;;;18.40;81.80;;;;;;5096472;28;19908;-69
2023/09/24 08:08:09;;;;;;;;;;;18.30;82.40;;;;;;5096418;28;19912;-73
2023/09/24 08:10:36;;;;;;;;;;;18.40;83.50;;;;;;5097387;28;19931;-72
2023/09/24 08:13:03;;;;;;;;;;;18.30;83.40;;;;;;5096541;28;20338;-68
2023/09/24 08:15:30;;;;;;;;;;;18.20;85.80;;;;;;5096865;28;20357;-71
2023/09/24 08:17:57;;;;;;;;;;;18.30;87.90;;;;;;5096437;28;19915;-71
2023/09/24 08:20:23;;;;;;;;;;;18.20;87.30;;;;;;5096259;28;19954;-67
2023/09/24 08:22:50;;;;;;;;;;;18.20;85.70;;;;;;5096241;28;19922;-69
2023/09/24 08:25:17;;;;;;;;;;;18.10;85.60;;;;;;5096451;28;19913;-70
2023/09/24 08:27:44;;;;;;;;;;;18.00;86.10;;;;;;5096106;28;19908;-73
2023/09/24 08:30:10;;;;;;;;;;;17.90;86.50;;;;;;5095970;28;19912;-70
2023/09/24 08:32:37;;;;;;;;;;;17.90;87.80;;;;;;5096191;28;19953;-71
2023/09/24 08:35:04;;;;;;;;;;;17.80;87.40;;;;;;5096142;28;19914;-75
2023/09/24 08:37:33;;;;;;;;;;;17.80;87.40;;;;;;5096125;28;19955;-72
2023/09/24 08:39:59;;;;;;;;;;;17.80;87.80;;;;;;5096387;28;20008;-74
2023/09/24 08:42:26;;;;;;;;;;;17.70;89.20;;;;;;5096073;28;20387;-68
2023/09/24 08:44:59;;;;;;;;;;;17.60;88.20;;;;;;5096312;28;19943;-74
2023/09/24 08:47:26;;;;;;;;;;;17.60;89.00;;;;;;5096087;28;19912;-68
2023/09/24 08:49:53;;;;;;;;;;;17.50;89.40;;;;;;5096045;28;20002;-75
2023/09/24 08:52:20;;;;;;;;;;;17.60;90.30;;;;;;5093854;28;19912;-74
2023/09/24 08:54:47;;;;;;;;;;;17.50;90.40;;;;;;5096973;28;19908;-67
2023/09/24 08:57:14;;;;;;;;;;;17.40;90.00;;;;;;5099039;28;20307;-71
2023/09/24 08:59:40;;;;;;;;;;;17.40;90.50;;;;;;5092736;28;20009;-72
2023/09/24 09:02:07;;;;;;;;;;;17.40;90.80;;;;;;5090541;28;19969;-77
2023/09/24 09:04:46;;;;;;;;;;;17.40;91.10;;;;;;5075555;28;20008;-75
2023/09/24 09:07:13;;;;;;;;;;;17.50;91.10;;;;;;5074481;28;19920;-74
2023/09/24 09:09:41;;;;;;;;;;;17.40;91.10;;;;;;5074542;28;19908;-73
2023/09/24 09:12:17;;;;;;;;;;;17.40;91.60;;;;;;5085099;28;19912;-76
2023/09/24 09:14:44;;;;;;;;;;;17.40;91.50;;;;;;5080469;28;19919;-73
2023/09/24 09:17:10;;;;;;;;;;;17.40;91.80;;;;;;5095163;28;19908;-76
2023/09/24 09:19:48;;;;;;;;;;;17.30;91.60;;;;;;5093941;28;19916;-73
2023/09/24 09:22:22;;;;;;;;;;;17.30;92.30;;;;;;5075915;28;20005;-77
2023/09/24 09:25:01;;;;;;;;;;;17.30;92.20;;;;;;5075426;28;19931;-72
2023/09/24 09:27:39;;;;;;;;;;;17.30;92.70;;;;;;5075198;28;19909;-75
2023/09/24 09:30:15;;;;;;;;;;;17.40;93.00;;;;;;5084261;28;19916;-76
2023/09/24 09:32:43;;;;;;;;;;;17.30;93.00;;;;;;5077443;28;20447;-70
2023/09/24 09:35:10;;;;;;;;;;;17.40;93.40;;;;;;5079963;28;19970;-72
2023/09/24 09:37:41;;;;;;;;;;;17.40;93.40;;;;;;5094169;28;20353;-73
2023/09/24 09:40:11;;;;;;;;;;;17.30;93.40;;;;;;5095993;28;19931;-77
2023/09/24 09:42:38;;;;;;;;;;;17.20;93.40;;;;;;5080342;28;19928;-71
2023/09/24 09:45:09;;;;;;;;;;;17.10;94.20;;;;;;5090281;28;19920;-77
2023/09/24 09:47:40;;;;;;;;;;;17.10;94.00;;;;;;5093795;28;19927;-77
2023/09/24 09:50:08;;;;;;;;;;;17.10;94.60;;;;;;5075280;28;19924;-67
2023/09/24 09:52:41;;;;;;;;;;;17.00;94.70;;;;;;5073734;28;19915;-72
2023/09/24 09:55:08;;;;;;;;;;;17.00;94.80;;;;;;5074680;28;19935;-69
2023/09/24 09:57:35;;;;;;;;;;;17.00;95.10;;;;;;5074470;28;19912;-68
2023/09/24 10:00:10;;;;;;;;;;;17.00;95.20;;;;;;5074518;28;19999;-72
2023/09/24 10:02:39;;;;;;;;;;;17.00;95.20;;;;;;5076178;28;19917;-72
2023/09/24 10:05:06;;;;;;;;;;;17.00;95.10;;;;;;5081747;28;20325;-68
2023/09/24 10:07:36;;;;;;;;;;;16.90;95.10;;;;;;5091655;28;19954;-68
2023/09/24 10:10:23;;;;;;;;;;;16.90;95.30;;;;;;5094779;28;20418;-66
2023/09/24 10:12:50;;;;;;;;;;;16.90;95.50;;;;;;5088890;28;19908;-77
2023/09/24 10:15:31;;;;;;;;;;;17.00;95.80;;;;;;5088052;28;19915;-72
2023/09/24 10:18:10;;;;;;;;;;;16.90;96.10;;;;;;5090505;28;19913;-68
2023/09/24 10:20:49;;;;;;;;;;;16.90;95.80;;;;;;5080393;28;19908;-71
2023/09/24 10:23:31;;;;;;;;;;;16.90;95.90;;;;;;5083929;28;19928;-73
2023/09/24 10:26:03;;;;;;;;;;;16.90;96.00;;;;;;5094541;28;19912;-73
2023/09/24 10:28:47;;;;;;;;;;;16.80;96.10;;;;;;5094047;28;19961;-69
2023/09/24 10:31:14;;;;;;;;;;;16.80;96.20;;;;;;5074410;28;20001;-72
2023/09/24 10:33:55;;;;;;;;;;;16.80;96.40;;;;;;5079084;28;19915;-71
2023/09/24 10:36:27;;;;;;;;;;;16.90;96.70;;;;;;5094278;28;19918;-66
2023/09/24 10:39:13;;;;;;;;;;;16.80;96.80;;;;;;5092205;28;19915;-69
2023/09/24 10:41:58;;;;;;;;;;;16.80;97.10;;;;;;5073710;28;19913;-73
2023/09/24 10:44:26;;;;;;;;;;;16.80;97.60;;;;;;5082358;28;19919;-70
2023/09/24 10:46:53;;;;;;;;;;;16.80;97.20;;;;;;5073493;28;20426;-71
2023/09/24 10:49:21;;;;;;;;;;;16.80;97.30;;;;;;5073256;28;19920;-68
2023/09/24 10:51:48;;;;;;;;;;;16.70;97.30;;;;;;5081690;28;20463;-66
2023/09/24 10:54:15;;;;;;;;;;;16.70;97.80;;;;;;5078468;28;20385;-67
2023/09/24 10:56:48;;;;;;;;;;;16.60;97.30;;;;;;5072211;28;19908;-68
2023/09/24 10:59:15;;;;;;;;;;;16.70;97.80;;;;;;5073510;28;19909;-73
2023/09/24 11:01:42;;;;;;;;;;;16.60;97.60;;;;;;5073235;28;19916;-71
2023/09/24 11:04:09;;;;;;;;;;;16.60;98.10;;;;;;5074300;28;20291;-76
2023/09/24 11:06:36;;;;;;;;;;;16.60;98.70;;;;;;5074227;28;19965;-69
2023/09/24 11:09:16;;;;;;;;;;;16.60;98.80;;;;;;5092462;28;19912;-69
2023/09/24 11:11:43;;;;;;;;;;;16.60;98.80;;;;;;5090373;28;19955;-68
2023/09/24 11:14:13;;;;;;;;;;;16.50;99.20;;;;;;5091732;28;19912;-69
2023/09/24 11:16:40;;;;;;;;;;;16.40;99.30;;;;;;5090324;28;19908;-67
2023/09/24 11:19:07;;;;;;;;;;;16.40;99.60;;;;;;5091400;28;19912;-68
2023/09/24 11:21:54;;;;;;;;;;;16.50;99.80;;;;;;5090868;28;19965;-69
2023/09/24 11:24:22;;;;;;;;;;;16.40;99.90;;;;;;5081561;28;20000;-71
2023/09/24 11:26:49;;;;;;;;;;;16.40;99.90;;;;;;5092330;28;19915;-70
2023/09/24 11:29:16;;;;;;;;;;;16.40;99.90;;;;;;5087180;28;19916;-71
2023/09/24 11:31:50;;;;;;;;;;;16.30;99.90;;;;;;5091610;28;19912;-70
2023/09/24 11:34:23;;;;;;;;;;;16.30;99.90;;;;;;5088990;28;19912;-71
2023/09/24 11:36:56;;;;;;;;;;;16.30;99.90;;;;;;5090050;28;19947;-66
2023/09/24 11:39:23;;;;;;;;;;;16.20;99.90;;;;;;5088402;28;20348;-66
2023/09/24 11:41:53;;;;;;;;;;;16.10;99.90;;;;;;5088621;28;20007;-72
2023/09/24 11:44:20;;;;;;;;;;;16.10;99.90;;;;;;5088880;28;20365;-67
2023/09/24 11:46:47;;;;;;;;;;;16.00;99.90;;;;;;5090910;28;20423;-66
2023/09/24 11:49:13;;;;;;;;;;;16.10;99.90;;;;;;5088598;28;19921;-69
2023/09/24 11:51:40;;;;;;;;;;;16.00;99.90;;;;;;5081146;28;19912;-68
2023/09/24 11:54:08;;;;;;;;;;;16.00;99.90;;;;;;5079033;28;20365;-68
2023/09/24 11:56:35;;;;;;;;;;;15.90;99.90;;;;;;5072369;28;20007;-67
2023/09/24 11:59:02;;;;;;;;;;;15.90;99.90;;;;;;5074769;28;19955;-68
2023/09/24 12:01:28;;;;;;;;;;;15.80;99.90;;;;;;5082643;28;19919;-67
2023/09/24 12:03:56;;;;;;;;;;;15.70;99.90;;;;;;5088008;28;20392;-69
2023/09/24 12:06:23;;;;;;;;;;;15.70;99.90;;;;;;5093849;28;19908;-67
2023/09/24 12:08:49;;;;;;;;;;;15.80;99.90;;;;;;5078650;28;19923;-69
2023/09/24 12:11:16;;;;;;;;;;;15.70;99.90;;;;;;5085295;28;20403;-69
2023/09/24 12:13:43;;;;;;;;;;;15.60;99.90;;;;;;5093594;28;20049;-67
2023/09/24 12:16:09;;;;;;;;;;;15.50;99.90;;;;;;5093875;28;19970;-68
2023/09/24 12:18:36;;;;;;;;;;;15.50;99.90;;;;;;5093451;28;19977;-69
2023/09/24 12:21:04;;;;;;;;;;;15.40;99.90;;;;;;5082642;28;19912;-71
2023/09/24 12:23:31;;;;;;;;;;;15.40;99.90;;;;;;5073321;28;20057;-69
2023/09/24 12:25:58;;;;;;;;;;;15.30;99.90;;;;;;5072483;28;19909;-67
2023/09/24 12:28:27;;;;;;;;;;;15.40;99.90;;;;;;5072765;28;19909;-69
2023/09/24 12:30:53;;;;;;;;;;;15.30;99.90;;;;;;5083429;28;19920;-68
2023/09/24 12:33:20;;;;;;;;;;;15.20;99.90;;;;;;5092526;28;19916;-68
2023/09/24 12:35:47;;;;;;;;;;;15.20;99.90;;;;;;5087414;28;19912;-67
2023/09/24 12:38:14;;;;;;;;;;;15.20;99.90;;;;;;5073160;28;20254;-68
2023/09/24 12:40:41;;;;;;;;;;;15.20;99.90;;;;;;5081112;28;19952;-69
2023/09/24 12:43:08;;;;;;;;;;;15.10;99.90;;;;;;5092353;28;20023;-68
2023/09/24 12:45:34;;;;;;;;;;;15.00;99.90;;;;;;5097166;28;19931;-69
2023/09/24 12:48:01;;;;;;;;;;;15.00;99.90;;;;;;5096771;28;20007;-69
2023/09/24 12:50:28;;;;;;;;;;;15.00;99.90;;;;;;5096052;28;20288;-67
2023/09/24 12:52:54;;;;;;;;;;;15.00;99.90;;;;;;5096295;28;20379;-68
2023/09/24 12:55:21;;;;;;;;;;;15.00;99.90;;;;;;5096593;28;19915;-68
2023/09/24 12:57:48;;;;;;;;;;;15.00;99.90;;;;;;5096384;28;19916;-68
2023/09/24 13:00:15;;;;;;;;;;;14.80;99.90;;;;;;5094207;28;20388;-70
2023/09/24 13:02:44;;;;;;;;;;;14.90;99.90;;;;;;5095479;28;19916;-68
2023/09/24 13:05:11;;;;;;;;;;;14.80;99.90;;;;;;5091872;28;19912;-68
2023/09/24 13:07:43;;;;;;;;;;;14.80;99.90;;;;;;5095702;28;19915;-69
2023/09/24 13:10:12;;;;;;;;;;;14.70;99.90;;;;;;5095302;28;19985;-68
2023/09/24 13:12:38;;;;;;;;;;;14.70;99.90;;;;;;5095477;28;19915;-69
2023/09/24 13:15:06;;;;;;;;;;;14.60;99.90;;;;;;5095820;28;19915;-69
2023/09/24 13:17:32;;;;;;;;;;;14.60;99.90;;;;;;5095401;28;19912;-69
2023/09/24 13:19:59;;;;;;;;;;;14.60;99.90;;;;;;5095559;28;19961;-68
2023/09/24 13:22:26;;;;;;;;;;;14.60;99.90;;;;;;5075383;28;19921;-67
2023/09/24 13:24:53;;;;;;;;;;;14.50;99.90;;;;;;5093406;28;19943;-70
2023/09/24 13:27:20;;;;;;;;;;;14.50;99.90;;;;;;5095415;28;19913;-70
2023/09/24 13:29:47;;;;;;;;;;;14.50;99.90;;;;;;5095387;28;19919;-68
2023/09/24 13:32:13;;;;;;;;;;;14.50;99.90;;;;;;5095483;28;19908;-67
2023/09/24 13:34:40;;;;;;;;;;;14.40;99.90;;;;;;5095451;28;19915;-68
2023/09/24 13:37:07;;;;;;;;;;;14.40;99.90;;;;;;5095642;28;19912;-67
2023/09/24 13:39:33;;;;;;;;;;;14.30;99.90;;;;;;5093615;28;20365;-67
2023/09/24 13:42:00;;;;;;;;;;;14.30;99.90;;;;;;5095098;28;19915;-66
2023/09/24 13:44:27;;;;;;;;;;;14.30;99.90;;;;;;5095230;28;19923;-65
2023/09/24 13:46:53;;;;;;;;;;;14.30;99.90;;;;;;5094988;28;19908;-66
2023/09/24 13:49:20;;;;;;;;;;;14.30;99.90;;;;;;5094132;28;20013;-68
2023/09/24 13:51:49;;;;;;;;;;;14.20;99.90;;;;;;5094761;28;20061;-66
2023/09/24 13:54:15;;;;;;;;;;;14.20;99.90;;;;;;5094213;28;19916;-66
2023/09/24 13:56:42;;;;;;;;;;;14.20;99.90;;;;;;5095017;28;19915;-68
2023/09/24 13:59:09;;;;;;;;;;;14.10;99.90;;;;;;5094359;28;19908;-66
2023/09/24 14:01:35;;;;;;;;;;;14.20;99.90;;;;;;5094179;28;19912;-66
2023/09/24 14:04:02;;;;;;;;;;;14.10;99.90;;;;;;5094705;28;19916;-66
2023/09/24 14:06:28;;;;;;;;;;;14.10;99.90;;;;;;5094744;28;19909;-66
2023/09/24 14:14:24;;;;;;;;;;;14.10;99.90;;;;;;5094521;28;19915;-67
2023/09/24 14:16:51;;;;;;;;;;;14.10;99.90;;;;;;5094305;28;20003;-67
2023/09/24 14:19:18;;;;;;;;;;;14.00;99.90;;;;;;5093941;28;19915;-67
2023/09/24 14:21:44;;;;;;;;;;;13.90;99.90;;;;;;5093190;28;19966;-68
2023/09/24 14:24:11;;;;;;;;;;;14.00;99.90;;;;;;5094210;28;19916;-66
2023/09/24 14:26:38;;;;;;;;;;;14.00;99.90;;;;;;5093962;28;19995;-68